sensor_id;sensor_type;location;lat;lon;timestamp;P1;durP1;ratioP1;P2;durP2;ratioP2
19456;SDS011;9867;48.094;11.478;2022-10-16T00:01:05;2.83;;;1.70;;
19456;SDS011;9867;48.094;11.478;2022-10-16T00:03:35;3.53;;;1.60;;
19456;SDS011;9867;48.094;11.478;2022-10-16T00:06:03;2.70;;;1.67;;
19456;SDS011;9867;48.094;11.478;2022-10-16T00:08:31;4.80;;;1.50;;
19456;SDS011;9867;48.094;11.478;2022-10-16T00:11:00;3.63;;;1.80;;
19456;SDS011;9867;48.094;11.478;2022-10-16T00:13:29;4.40;;;1.40;;
19456;SDS011;9867;48.094;11.478;2022-10-16T00:15:57;6.50;;;1.83;;
19456;SDS011;9867;48.094;11.478;2022-10-16T00:18:26;2.47;;;1.50;;
19456;SDS011;9867;48.094;11.478;2022-10-16T00:21:00;2.80;;;1.60;;
19456;SDS011;9867;48.094;11.478;2022-10-16T00:23:29;3.47;;;1.37;;
19456;SDS011;9867;48.094;11.478;2022-10-16T00:25:58;2.90;;;1.70;;
19456;SDS011;9867;48.094;11.478;2022-10-16T00:28:27;1.97;;;1.33;;
19456;SDS011;9867;48.094;11.478;2022-10-16T00:30:56;3.90;;;1.77;;
19456;SDS011;9867;48.094;11.478;2022-10-16T00:33:24;1.67;;;1.57;;
19456;SDS011;9867;48.094;11.478;2022-10-16T00:35:52;4.47;;;1.60;;
19456;SDS011;9867;48.094;11.478;2022-10-16T00:38:21;3.03;;;1.50;;
19456;SDS011;9867;48.094;11.478;2022-10-16T00:40:49;3.30;;;1.43;;
19456;SDS011;9867;48.094;11.478;2022-10-16T00:43:32;1.67;;;1.57;;
19456;SDS011;9867;48.094;11.478;2022-10-16T00:46:03;3.23;;;1.30;;
19456;SDS011;9867;48.094;11.478;2022-10-16T00:48:36;1.50;;;1.40;;
19456;SDS011;9867;48.094;11.478;2022-10-16T00:51:04;1.33;;;1.30;;
19456;SDS011;9867;48.094;11.478;2022-10-16T00:53:36;1.27;;;1.20;;
19456;SDS011;9867;48.094;11.478;2022-10-16T00:56:04;2.53;;;1.40;;
19456;SDS011;9867;48.094;11.478;2022-10-16T00:58:32;1.87;;;1.77;;
19456;SDS011;9867;48.094;11.478;2022-10-16T01:01:00;3.90;;;1.67;;
19456;SDS011;9867;48.094;11.478;2022-10-16T01:03:29;7.23;;;2.10;;
19456;SDS011;9867;48.094;11.478;2022-10-16T01:06:04;2.27;;;2.07;;
19456;SDS011;9867;48.094;11.478;2022-10-16T01:08:47;1.80;;;1.63;;
19456;SDS011;9867;48.094;11.478;2022-10-16T01:11:25;2.10;;;1.90;;
19456;SDS011;9867;48.094;11.478;2022-10-16T01:14:06;2.47;;;2.23;;
19456;SDS011;9867;48.094;11.478;2022-10-16T01:16:43;1.57;;;1.30;;
19456;SDS011;9867;48.094;11.478;2022-10-16T01:19:16;2.00;;;1.23;;
19456;SDS011;9867;48.094;11.478;2022-10-16T01:21:51;2.10;;;1.50;;
19456;SDS011;9867;48.094;11.478;2022-10-16T01:24:27;5.27;;;1.77;;
19456;SDS011;9867;48.094;11.478;2022-10-16T01:27:07;2.07;;;1.43;;
19456;SDS011;9867;48.094;11.478;2022-10-16T01:29:38;1.63;;;1.30;;
19456;SDS011;9867;48.094;11.478;2022-10-16T01:32:15;1.57;;;1.47;;
19456;SDS011;9867;48.094;11.478;2022-10-16T01:34:48;2.20;;;1.40;;
19456;SDS011;9867;48.094;11.478;2022-10-16T01:37:23;1.73;;;1.50;;
19456;SDS011;9867;48.094;11.478;2022-10-16T01:40:07;2.53;;;1.43;;
19456;SDS011;9867;48.094;11.478;2022-10-16T01:42:41;1.87;;;1.40;;
19456;SDS011;9867;48.094;11.478;2022-10-16T01:45:14;1.30;;;1.20;;
19456;SDS011;9867;48.094;11.478;2022-10-16T01:47:46;3.37;;;1.40;;
19456;SDS011;9867;48.094;11.478;2022-10-16T01:50:16;2.97;;;1.50;;
19456;SDS011;9867;48.094;11.478;2022-10-16T01:52:48;2.00;;;1.80;;
19456;SDS011;9867;48.094;11.478;2022-10-16T01:55:21;2.03;;;1.60;;
19456;SDS011;9867;48.094;11.478;2022-10-16T01:57:59;2.13;;;1.53;;
19456;SDS011;9867;48.094;11.478;2022-10-16T02:00:31;2.03;;;1.37;;
19456;SDS011;9867;48.094;11.478;2022-10-16T02:02:58;1.67;;;1.30;;
19456;SDS011;9867;48.094;11.478;2022-10-16T02:05:30;2.83;;;1.50;;
19456;SDS011;9867;48.094;11.478;2022-10-16T02:08:01;2.93;;;1.57;;
19456;SDS011;9867;48.094;11.478;2022-10-16T02:10:31;1.77;;;1.67;;
19456;SDS011;9867;48.094;11.478;2022-10-16T02:13:02;3.33;;;1.30;;
19456;SDS011;9867;48.094;11.478;2022-10-16T02:15:33;1.77;;;1.57;;
19456;SDS011;9867;48.094;11.478;2022-10-16T02:18:01;1.90;;;1.30;;
19456;SDS011;9867;48.094;11.478;2022-10-16T02:20:30;1.40;;;1.30;;
19456;SDS011;9867;48.094;11.478;2022-10-16T02:23:04;2.83;;;1.40;;
19456;SDS011;9867;48.094;11.478;2022-10-16T02:25:35;3.03;;;1.07;;
19456;SDS011;9867;48.094;11.478;2022-10-16T02:28:11;1.80;;;1.23;;
19456;SDS011;9867;48.094;11.478;2022-10-16T02:30:46;3.07;;;1.67;;
19456;SDS011;9867;48.094;11.478;2022-10-16T02:33:18;2.30;;;1.40;;
19456;SDS011;9867;48.094;11.478;2022-10-16T02:35:48;1.50;;;1.40;;
19456;SDS011;9867;48.094;11.478;2022-10-16T02:38:18;2.20;;;1.67;;
19456;SDS011;9867;48.094;11.478;2022-10-16T02:40:47;1.57;;;1.47;;
19456;SDS011;9867;48.094;11.478;2022-10-16T02:43:17;1.40;;;1.30;;
19456;SDS011;9867;48.094;11.478;2022-10-16T02:45:45;1.50;;;1.40;;
19456;SDS011;9867;48.094;11.478;2022-10-16T02:48:13;2.23;;;1.53;;
19456;SDS011;9867;48.094;11.478;2022-10-16T02:50:41;1.53;;;1.27;;
19456;SDS011;9867;48.094;11.478;2022-10-16T02:53:09;3.70;;;1.30;;
19456;SDS011;9867;48.094;11.478;2022-10-16T02:55:37;3.53;;;1.50;;
19456;SDS011;9867;48.094;11.478;2022-10-16T02:58:04;1.73;;;1.53;;
19456;SDS011;9867;48.094;11.478;2022-10-16T03:00:34;3.70;;;1.60;;
19456;SDS011;9867;48.094;11.478;2022-10-16T03:03:01;2.10;;;1.27;;
19456;SDS011;9867;48.094;11.478;2022-10-16T03:05:29;1.37;;;1.20;;
19456;SDS011;9867;48.094;11.478;2022-10-16T03:07:57;1.40;;;1.30;;
19456;SDS011;9867;48.094;11.478;2022-10-16T03:10:26;1.80;;;1.30;;
19456;SDS011;9867;48.094;11.478;2022-10-16T03:12:54;2.30;;;1.30;;
19456;SDS011;9867;48.094;11.478;2022-10-16T03:15:22;1.70;;;1.27;;
19456;SDS011;9867;48.094;11.478;2022-10-16T03:17:51;3.17;;;1.40;;
19456;SDS011;9867;48.094;11.478;2022-10-16T03:20:19;2.57;;;1.50;;
19456;SDS011;9867;48.094;11.478;2022-10-16T03:22:47;2.43;;;1.50;;
19456;SDS011;9867;48.094;11.478;2022-10-16T03:25:15;1.53;;;1.43;;
19456;SDS011;9867;48.094;11.478;2022-10-16T03:27:43;1.63;;;1.50;;
19456;SDS011;9867;48.094;11.478;2022-10-16T03:30:11;2.20;;;1.53;;
19456;SDS011;9867;48.094;11.478;2022-10-16T03:32:39;3.33;;;1.70;;
19456;SDS011;9867;48.094;11.478;2022-10-16T03:35:08;1.80;;;1.33;;
19456;SDS011;9867;48.094;11.478;2022-10-16T03:37:36;2.67;;;1.53;;
19456;SDS011;9867;48.094;11.478;2022-10-16T03:40:04;1.53;;;1.43;;
19456;SDS011;9867;48.094;11.478;2022-10-16T03:42:33;1.43;;;1.33;;
19456;SDS011;9867;48.094;11.478;2022-10-16T03:45:03;1.97;;;1.57;;
19456;SDS011;9867;48.094;11.478;2022-10-16T03:47:32;1.30;;;1.30;;
19456;SDS011;9867;48.094;11.478;2022-10-16T03:49:59;3.70;;;1.37;;
19456;SDS011;9867;48.094;11.478;2022-10-16T03:52:29;4.03;;;1.60;;
19456;SDS011;9867;48.094;11.478;2022-10-16T03:54:58;1.60;;;1.50;;
19456;SDS011;9867;48.094;11.478;2022-10-16T03:57:26;1.60;;;1.50;;
19456;SDS011;9867;48.094;11.478;2022-10-16T03:59:54;1.70;;;1.20;;
19456;SDS011;9867;48.094;11.478;2022-10-16T04:02:22;1.70;;;1.60;;
19456;SDS011;9867;48.094;11.478;2022-10-16T04:04:50;1.40;;;1.40;;
19456;SDS011;9867;48.094;11.478;2022-10-16T04:07:18;1.77;;;1.53;;
19456;SDS011;9867;48.094;11.478;2022-10-16T04:09:47;2.73;;;1.57;;
19456;SDS011;9867;48.094;11.478;2022-10-16T04:12:15;2.40;;;1.70;;
19456;SDS011;9867;48.094;11.478;2022-10-16T04:14:43;2.47;;;1.90;;
19456;SDS011;9867;48.094;11.478;2022-10-16T04:17:11;2.27;;;1.43;;
19456;SDS011;9867;48.094;11.478;2022-10-16T04:19:38;1.60;;;1.50;;
19456;SDS011;9867;48.094;11.478;2022-10-16T04:22:06;1.47;;;1.40;;
19456;SDS011;9867;48.094;11.478;2022-10-16T04:24:34;1.80;;;1.70;;
19456;SDS011;9867;48.094;11.478;2022-10-16T04:27:03;1.90;;;1.70;;
19456;SDS011;9867;48.094;11.478;2022-10-16T04:29:31;1.80;;;1.70;;
19456;SDS011;9867;48.094;11.478;2022-10-16T04:31:59;2.67;;;1.67;;
19456;SDS011;9867;48.094;11.478;2022-10-16T04:34:27;1.73;;;1.63;;
19456;SDS011;9867;48.094;11.478;2022-10-16T04:36:55;3.73;;;1.77;;
19456;SDS011;9867;48.094;11.478;2022-10-16T04:39:22;1.63;;;1.47;;
19456;SDS011;9867;48.094;11.478;2022-10-16T04:41:50;3.30;;;1.70;;
19456;SDS011;9867;48.094;11.478;2022-10-16T04:44:19;2.20;;;2.00;;
19456;SDS011;9867;48.094;11.478;2022-10-16T04:46:49;4.23;;;1.60;;
19456;SDS011;9867;48.094;11.478;2022-10-16T04:49:17;3.40;;;1.63;;
19456;SDS011;9867;48.094;11.478;2022-10-16T04:51:45;2.33;;;1.50;;
19456;SDS011;9867;48.094;11.478;2022-10-16T04:54:13;3.30;;;1.80;;
19456;SDS011;9867;48.094;11.478;2022-10-16T04:56:41;1.90;;;1.80;;
19456;SDS011;9867;48.094;11.478;2022-10-16T04:59:13;1.80;;;1.70;;
19456;SDS011;9867;48.094;11.478;2022-10-16T05:01:43;4.47;;;2.00;;
19456;SDS011;9867;48.094;11.478;2022-10-16T05:04:11;3.37;;;1.80;;
19456;SDS011;9867;48.094;11.478;2022-10-16T05:06:41;1.97;;;1.87;;
19456;SDS011;9867;48.094;11.478;2022-10-16T05:09:09;1.60;;;1.50;;
19456;SDS011;9867;48.094;11.478;2022-10-16T05:11:37;3.30;;;1.57;;
19456;SDS011;9867;48.094;11.478;2022-10-16T05:14:05;3.10;;;1.47;;
19456;SDS011;9867;48.094;11.478;2022-10-16T05:16:33;2.20;;;2.00;;
19456;SDS011;9867;48.094;11.478;2022-10-16T05:19:02;4.10;;;1.53;;
19456;SDS011;9867;48.094;11.478;2022-10-16T05:21:50;1.80;;;1.70;;
19456;SDS011;9867;48.094;11.478;2022-10-16T05:24:18;1.83;;;1.60;;
19456;SDS011;9867;48.094;11.478;2022-10-16T05:26:46;1.73;;;1.60;;
19456;SDS011;9867;48.094;11.478;2022-10-16T05:29:14;3.67;;;1.70;;
19456;SDS011;9867;48.094;11.478;2022-10-16T05:31:41;6.27;;;1.90;;
19456;SDS011;9867;48.094;11.478;2022-10-16T05:34:11;2.17;;;2.00;;
19456;SDS011;9867;48.094;11.478;2022-10-16T05:36:38;2.20;;;2.03;;
19456;SDS011;9867;48.094;11.478;2022-10-16T05:39:06;2.73;;;1.77;;
19456;SDS011;9867;48.094;11.478;2022-10-16T05:41:34;2.20;;;2.00;;
19456;SDS011;9867;48.094;11.478;2022-10-16T05:44:03;1.93;;;1.80;;
19456;SDS011;9867;48.094;11.478;2022-10-16T05:46:32;1.90;;;1.80;;
19456;SDS011;9867;48.094;11.478;2022-10-16T05:49:00;1.90;;;1.80;;
19456;SDS011;9867;48.094;11.478;2022-10-16T05:51:30;1.97;;;1.87;;
19456;SDS011;9867;48.094;11.478;2022-10-16T05:53:58;1.77;;;1.67;;
19456;SDS011;9867;48.094;11.478;2022-10-16T05:56:25;2.70;;;2.00;;
19456;SDS011;9867;48.094;11.478;2022-10-16T05:58:53;2.43;;;1.90;;
19456;SDS011;9867;48.094;11.478;2022-10-16T06:01:21;2.83;;;1.93;;
19456;SDS011;9867;48.094;11.478;2022-10-16T06:03:50;3.30;;;1.90;;
19456;SDS011;9867;48.094;11.478;2022-10-16T06:06:20;6.40;;;1.80;;
19456;SDS011;9867;48.094;11.478;2022-10-16T06:08:52;2.20;;;2.00;;
19456;SDS011;9867;48.094;11.478;2022-10-16T06:11:22;3.53;;;2.07;;
19456;SDS011;9867;48.094;11.478;2022-10-16T06:13:51;4.70;;;2.17;;
19456;SDS011;9867;48.094;11.478;2022-10-16T06:16:20;2.57;;;2.00;;
19456;SDS011;9867;48.094;11.478;2022-10-16T06:18:50;2.63;;;1.90;;
19456;SDS011;9867;48.094;11.478;2022-10-16T06:21:19;2.00;;;1.90;;
19456;SDS011;9867;48.094;11.478;2022-10-16T06:23:48;3.43;;;2.10;;
19456;SDS011;9867;48.094;11.478;2022-10-16T06:26:18;2.00;;;1.90;;
19456;SDS011;9867;48.094;11.478;2022-10-16T06:28:47;2.03;;;1.90;;
19456;SDS011;9867;48.094;11.478;2022-10-16T06:31:15;2.40;;;2.10;;
19456;SDS011;9867;48.094;11.478;2022-10-16T06:33:44;6.73;;;2.00;;
19456;SDS011;9867;48.094;11.478;2022-10-16T06:36:13;4.53;;;2.00;;
19456;SDS011;9867;48.094;11.478;2022-10-16T06:38:43;1.97;;;1.87;;
19456;SDS011;9867;48.094;11.478;2022-10-16T06:41:12;3.70;;;3.30;;
19456;SDS011;9867;48.094;11.478;2022-10-16T06:43:43;3.67;;;3.37;;
19456;SDS011;9867;48.094;11.478;2022-10-16T06:46:12;4.20;;;3.60;;
19456;SDS011;9867;48.094;11.478;2022-10-16T06:48:42;5.40;;;3.20;;
19456;SDS011;9867;48.094;11.478;2022-10-16T06:51:11;3.53;;;3.20;;
19456;SDS011;9867;48.094;11.478;2022-10-16T06:53:41;2.73;;;2.53;;
19456;SDS011;9867;48.094;11.478;2022-10-16T06:56:28;2.50;;;2.30;;
19456;SDS011;9867;48.094;11.478;2022-10-16T06:58:59;2.33;;;2.13;;
19456;SDS011;9867;48.094;11.478;2022-10-16T07:01:28;3.83;;;2.70;;
19456;SDS011;9867;48.094;11.478;2022-10-16T07:03:56;4.30;;;2.20;;
19456;SDS011;9867;48.094;11.478;2022-10-16T07:06:25;2.73;;;2.53;;
19456;SDS011;9867;48.094;11.478;2022-10-16T07:08:53;3.27;;;2.07;;
19456;SDS011;9867;48.094;11.478;2022-10-16T07:11:22;3.07;;;2.37;;
19456;SDS011;9867;48.094;11.478;2022-10-16T07:13:51;3.33;;;3.03;;
19456;SDS011;9867;48.094;11.478;2022-10-16T07:16:23;3.23;;;3.03;;
19456;SDS011;9867;48.094;11.478;2022-10-16T07:18:53;5.30;;;3.30;;
19456;SDS011;9867;48.094;11.478;2022-10-16T07:21:25;5.20;;;2.70;;
19456;SDS011;9867;48.094;11.478;2022-10-16T07:23:56;5.33;;;2.50;;
19456;SDS011;9867;48.094;11.478;2022-10-16T07:26:26;3.47;;;3.27;;
19456;SDS011;9867;48.094;11.478;2022-10-16T07:28:56;3.67;;;2.13;;
19456;SDS011;9867;48.094;11.478;2022-10-16T07:31:25;2.73;;;2.50;;
19456;SDS011;9867;48.094;11.478;2022-10-16T07:33:54;3.70;;;2.30;;
19456;SDS011;9867;48.094;11.478;2022-10-16T07:36:21;4.37;;;2.73;;
19456;SDS011;9867;48.094;11.478;2022-10-16T07:38:49;2.30;;;2.10;;
19456;SDS011;9867;48.094;11.478;2022-10-16T07:41:22;4.63;;;3.27;;
19456;SDS011;9867;48.094;11.478;2022-10-16T07:43:50;3.20;;;3.00;;
19456;SDS011;9867;48.094;11.478;2022-10-16T07:46:21;3.27;;;2.97;;
19456;SDS011;9867;48.094;11.478;2022-10-16T07:48:51;4.20;;;2.97;;
19456;SDS011;9867;48.094;11.478;2022-10-16T07:51:20;6.40;;;5.10;;
19456;SDS011;9867;48.094;11.478;2022-10-16T07:53:49;3.60;;;3.30;;
19456;SDS011;9867;48.094;11.478;2022-10-16T07:56:18;3.23;;;3.03;;
19456;SDS011;9867;48.094;11.478;2022-10-16T07:58:47;2.83;;;2.63;;
19456;SDS011;9867;48.094;11.478;2022-10-16T08:01:16;5.27;;;3.10;;
19456;SDS011;9867;48.094;11.478;2022-10-16T08:03:46;6.57;;;5.87;;
19456;SDS011;9867;48.094;11.478;2022-10-16T08:06:16;3.43;;;3.07;;
19456;SDS011;9867;48.094;11.478;2022-10-16T08:08:53;3.00;;;2.80;;
19456;SDS011;9867;48.094;11.478;2022-10-16T08:11:22;4.33;;;2.43;;
19456;SDS011;9867;48.094;11.478;2022-10-16T08:13:50;2.83;;;2.47;;
19456;SDS011;9867;48.094;11.478;2022-10-16T08:16:18;2.43;;;2.23;;
19456;SDS011;9867;48.094;11.478;2022-10-16T08:18:46;2.60;;;2.40;;
19456;SDS011;9867;48.094;11.478;2022-10-16T08:21:15;2.60;;;2.40;;
19456;SDS011;9867;48.094;11.478;2022-10-16T08:23:47;3.37;;;2.00;;
19456;SDS011;9867;48.094;11.478;2022-10-16T08:26:23;2.40;;;2.30;;
19456;SDS011;9867;48.094;11.478;2022-10-16T08:28:52;2.47;;;2.27;;
19456;SDS011;9867;48.094;11.478;2022-10-16T08:31:21;2.33;;;1.90;;
19456;SDS011;9867;48.094;11.478;2022-10-16T08:33:49;2.23;;;2.10;;
19456;SDS011;9867;48.094;11.478;2022-10-16T08:36:20;2.30;;;2.20;;
19456;SDS011;9867;48.094;11.478;2022-10-16T08:38:48;2.47;;;1.90;;
19456;SDS011;9867;48.094;11.478;2022-10-16T08:41:22;2.20;;;2.00;;
19456;SDS011;9867;48.094;11.478;2022-10-16T08:46:58;2.40;;;1.97;;
19456;SDS011;9867;48.094;11.478;2022-10-16T08:49:38;5.33;;;3.40;;
19456;SDS011;9867;48.094;11.478;2022-10-16T08:52:11;3.23;;;2.90;;
19456;SDS011;9867;48.094;11.478;2022-10-16T08:54:41;2.53;;;2.33;;
19456;SDS011;9867;48.094;11.478;2022-10-16T08:57:13;2.20;;;2.10;;
19456;SDS011;9867;48.094;11.478;2022-10-16T08:59:51;3.77;;;3.47;;
19456;SDS011;9867;48.094;11.478;2022-10-16T09:02:25;4.50;;;2.27;;
19456;SDS011;9867;48.094;11.478;2022-10-16T09:05:01;3.10;;;2.43;;
19456;SDS011;9867;48.094;11.478;2022-10-16T09:07:46;4.33;;;2.13;;
19456;SDS011;9867;48.094;11.478;2022-10-16T09:10:26;3.33;;;1.80;;
19456;SDS011;9867;48.094;11.478;2022-10-16T09:13:07;2.77;;;1.77;;
19456;SDS011;9867;48.094;11.478;2022-10-16T09:15:46;2.43;;;1.97;;
19456;SDS011;9867;48.094;11.478;2022-10-16T09:18:22;2.47;;;2.27;;
19456;SDS011;9867;48.094;11.478;2022-10-16T09:20:59;2.17;;;2.00;;
19456;SDS011;9867;48.094;11.478;2022-10-16T09:23:38;3.93;;;2.00;;
19456;SDS011;9867;48.094;11.478;2022-10-16T09:26:09;2.17;;;1.97;;
19456;SDS011;9867;48.094;11.478;2022-10-16T09:28:42;3.30;;;2.30;;
19456;SDS011;9867;48.094;11.478;2022-10-16T09:31:13;2.97;;;2.20;;
19456;SDS011;9867;48.094;11.478;2022-10-16T09:33:45;2.73;;;2.03;;
19456;SDS011;9867;48.094;11.478;2022-10-16T09:36:16;3.10;;;2.30;;
19456;SDS011;9867;48.094;11.478;2022-10-16T09:38:46;4.20;;;2.30;;
19456;SDS011;9867;48.094;11.478;2022-10-16T09:41:17;3.10;;;2.60;;
19456;SDS011;9867;48.094;11.478;2022-10-16T09:43:47;2.90;;;2.70;;
19456;SDS011;9867;48.094;11.478;2022-10-16T09:46:21;3.13;;;2.10;;
19456;SDS011;9867;48.094;11.478;2022-10-16T09:48:53;2.53;;;2.03;;
19456;SDS011;9867;48.094;11.478;2022-10-16T09:51:23;2.50;;;2.10;;
19456;SDS011;9867;48.094;11.478;2022-10-16T09:53:56;2.87;;;1.83;;
19456;SDS011;9867;48.094;11.478;2022-10-16T09:56:26;2.30;;;1.60;;
19456;SDS011;9867;48.094;11.478;2022-10-16T09:58:56;2.27;;;1.80;;
19456;SDS011;9867;48.094;11.478;2022-10-16T10:01:29;2.17;;;1.93;;
19456;SDS011;9867;48.094;11.478;2022-10-16T10:04:03;2.23;;;2.00;;
19456;SDS011;9867;48.094;11.478;2022-10-16T10:06:32;1.70;;;1.60;;
19456;SDS011;9867;48.094;11.478;2022-10-16T10:09:06;2.10;;;2.00;;
19456;SDS011;9867;48.094;11.478;2022-10-16T10:11:47;3.07;;;1.60;;
19456;SDS011;9867;48.094;11.478;2022-10-16T10:14:18;2.33;;;1.93;;
19456;SDS011;9867;48.094;11.478;2022-10-16T10:16:50;1.80;;;1.70;;
19456;SDS011;9867;48.094;11.478;2022-10-16T10:19:20;2.40;;;2.17;;
19456;SDS011;9867;48.094;11.478;2022-10-16T10:21:58;3.07;;;2.87;;
19456;SDS011;9867;48.094;11.478;2022-10-16T10:24:28;3.00;;;2.00;;
19456;SDS011;9867;48.094;11.478;2022-10-16T10:26:59;2.40;;;2.30;;
19456;SDS011;9867;48.094;11.478;2022-10-16T10:29:40;4.07;;;2.17;;
19456;SDS011;9867;48.094;11.478;2022-10-16T10:32:18;1.90;;;1.80;;
19456;SDS011;9867;48.094;11.478;2022-10-16T10:35:01;2.20;;;2.10;;
19456;SDS011;9867;48.094;11.478;2022-10-16T10:37:45;2.30;;;1.67;;
19456;SDS011;9867;48.094;11.478;2022-10-16T10:40:28;4.10;;;1.90;;
19456;SDS011;9867;48.094;11.478;2022-10-16T10:43:08;1.67;;;1.57;;
19456;SDS011;9867;48.094;11.478;2022-10-16T10:45:46;1.80;;;1.70;;
19456;SDS011;9867;48.094;11.478;2022-10-16T10:48:19;2.20;;;1.43;;
19456;SDS011;9867;48.094;11.478;2022-10-16T10:50:56;1.37;;;1.27;;
19456;SDS011;9867;48.094;11.478;2022-10-16T10:53:31;1.70;;;1.43;;
19456;SDS011;9867;48.094;11.478;2022-10-16T10:56:13;1.57;;;1.47;;
19456;SDS011;9867;48.094;11.478;2022-10-16T11:01:59;1.40;;;1.30;;
19456;SDS011;9867;48.094;11.478;2022-10-16T11:04:33;2.27;;;1.17;;
19456;SDS011;9867;48.094;11.478;2022-10-16T11:07:17;1.37;;;1.27;;
19456;SDS011;9867;48.094;11.478;2022-10-16T11:09:49;2.37;;;1.40;;
19456;SDS011;9867;48.094;11.478;2022-10-16T11:12:25;1.90;;;1.30;;
19456;SDS011;9867;48.094;11.478;2022-10-16T11:15:00;2.63;;;1.30;;
19456;SDS011;9867;48.094;11.478;2022-10-16T11:17:33;1.20;;;0.90;;
19456;SDS011;9867;48.094;11.478;2022-10-16T11:20:11;2.20;;;1.10;;
19456;SDS011;9867;48.094;11.478;2022-10-16T11:22:42;1.20;;;1.10;;
19456;SDS011;9867;48.094;11.478;2022-10-16T11:25:18;1.40;;;1.30;;
19456;SDS011;9867;48.094;11.478;2022-10-16T11:27:53;1.20;;;1.10;;
19456;SDS011;9867;48.094;11.478;2022-10-16T11:30:27;2.93;;;1.10;;
19456;SDS011;9867;48.094;11.478;2022-10-16T11:33:02;0.70;;;0.70;;
19456;SDS011;9867;48.094;11.478;2022-10-16T11:35:43;1.17;;;0.83;;
19456;SDS011;9867;48.094;11.478;2022-10-16T11:38:19;0.80;;;0.80;;
19456;SDS011;9867;48.094;11.478;2022-10-16T11:40:54;6.63;;;6.10;;
19456;SDS011;9867;48.094;11.478;2022-10-16T11:43:31;1.07;;;1.00;;
19456;SDS011;9867;48.094;11.478;2022-10-16T11:46:04;0.80;;;0.80;;
19456;SDS011;9867;48.094;11.478;2022-10-16T11:48:41;0.80;;;0.80;;
19456;SDS011;9867;48.094;11.478;2022-10-16T11:51:16;1.87;;;1.10;;
19456;SDS011;9867;48.094;11.478;2022-10-16T11:53:53;1.17;;;1.07;;
19456;SDS011;9867;48.094;11.478;2022-10-16T11:56:28;0.93;;;0.90;;
19456;SDS011;9867;48.094;11.478;2022-10-16T11:59:02;1.13;;;0.77;;
19456;SDS011;9867;48.094;11.478;2022-10-16T12:01:37;0.83;;;0.83;;
19456;SDS011;9867;48.094;11.478;2022-10-16T12:04:14;0.80;;;0.80;;
19456;SDS011;9867;48.094;11.478;2022-10-16T12:06:50;0.90;;;0.90;;
19456;SDS011;9867;48.094;11.478;2022-10-16T12:09:24;1.87;;;0.63;;
19456;SDS011;9867;48.094;11.478;2022-10-16T12:11:54;1.77;;;0.70;;
19456;SDS011;9867;48.094;11.478;2022-10-16T12:14:39;1.70;;;0.80;;
19456;SDS011;9867;48.094;11.478;2022-10-16T12:17:36;0.90;;;0.90;;
19456;SDS011;9867;48.094;11.478;2022-10-16T12:22:58;1.43;;;1.10;;
19456;SDS011;9867;48.094;11.478;2022-10-16T12:25:32;1.63;;;0.90;;
19456;SDS011;9867;48.094;11.478;2022-10-16T12:28:02;0.80;;;0.80;;
19456;SDS011;9867;48.094;11.478;2022-10-16T12:30:34;1.20;;;1.10;;
19456;SDS011;9867;48.094;11.478;2022-10-16T12:33:16;0.83;;;0.83;;
19456;SDS011;9867;48.094;11.478;2022-10-16T12:35:49;0.90;;;0.90;;
19456;SDS011;9867;48.094;11.478;2022-10-16T12:38:18;2.40;;;2.20;;
19456;SDS011;9867;48.094;11.478;2022-10-16T12:40:55;1.23;;;1.13;;
19456;SDS011;9867;48.094;11.478;2022-10-16T12:43:35;1.40;;;1.30;;
19456;SDS011;9867;48.094;11.478;2022-10-16T12:46:20;1.40;;;1.00;;
19456;SDS011;9867;48.094;11.478;2022-10-16T12:48:50;1.03;;;1.00;;
19456;SDS011;9867;48.094;11.478;2022-10-16T12:51:33;1.47;;;1.00;;
19456;SDS011;9867;48.094;11.478;2022-10-16T12:54:04;1.00;;;0.90;;
19456;SDS011;9867;48.094;11.478;2022-10-16T12:56:41;1.10;;;1.00;;
19456;SDS011;9867;48.094;11.478;2022-10-16T12:59:21;2.10;;;1.00;;
19456;SDS011;9867;48.094;11.478;2022-10-16T13:02:06;1.57;;;1.30;;
19456;SDS011;9867;48.094;11.478;2022-10-16T13:05:00;0.90;;;0.90;;
19456;SDS011;9867;48.094;11.478;2022-10-16T13:07:44;1.40;;;1.10;;
19456;SDS011;9867;48.094;11.478;2022-10-16T13:10:22;1.23;;;0.60;;
19456;SDS011;9867;48.094;11.478;2022-10-16T13:13:06;0.73;;;0.73;;
19456;SDS011;9867;48.094;11.478;2022-10-16T13:15:50;1.67;;;1.10;;
19456;SDS011;9867;48.094;11.478;2022-10-16T13:18:28;2.33;;;0.50;;
19456;SDS011;9867;48.094;11.478;2022-10-16T13:21:11;1.50;;;1.40;;
19456;SDS011;9867;48.094;11.478;2022-10-16T13:23:52;1.70;;;0.50;;
19456;SDS011;9867;48.094;11.478;2022-10-16T13:26:29;1.07;;;0.60;;
19456;SDS011;9867;48.094;11.478;2022-10-16T13:29:07;4.10;;;3.80;;
19456;SDS011;9867;48.094;11.478;2022-10-16T13:31:36;2.30;;;2.10;;
19456;SDS011;9867;48.094;11.478;2022-10-16T13:34:10;2.20;;;1.27;;
19456;SDS011;9867;48.094;11.478;2022-10-16T13:36:43;0.90;;;0.73;;
19456;SDS011;9867;48.094;11.478;2022-10-16T13:39:13;1.43;;;0.97;;
19456;SDS011;9867;48.094;11.478;2022-10-16T13:41:43;2.13;;;0.90;;
19456;SDS011;9867;48.094;11.478;2022-10-16T13:44:13;1.60;;;0.50;;
19456;SDS011;9867;48.094;11.478;2022-10-16T13:46:46;1.80;;;0.60;;
19456;SDS011;9867;48.094;11.478;2022-10-16T13:49:16;1.00;;;0.80;;
19456;SDS011;9867;48.094;11.478;2022-10-16T13:51:53;1.90;;;0.60;;
19456;SDS011;9867;48.094;11.478;2022-10-16T13:54:24;0.50;;;0.50;;
19456;SDS011;9867;48.094;11.478;2022-10-16T13:56:55;0.40;;;0.33;;
19456;SDS011;9867;48.094;11.478;2022-10-16T13:59:35;0.93;;;0.63;;
19456;SDS011;9867;48.094;11.478;2022-10-16T14:02:05;2.53;;;0.73;;
19456;SDS011;9867;48.094;11.478;2022-10-16T14:04:47;1.00;;;0.80;;
19456;SDS011;9867;48.094;11.478;2022-10-16T14:07:18;1.70;;;0.70;;
19456;SDS011;9867;48.094;11.478;2022-10-16T14:09:54;1.10;;;0.80;;
19456;SDS011;9867;48.094;11.478;2022-10-16T14:12:25;2.87;;;1.43;;
19456;SDS011;9867;48.094;11.478;2022-10-16T14:14:54;3.10;;;0.77;;
19456;SDS011;9867;48.094;11.478;2022-10-16T14:17:32;0.90;;;0.70;;
19456;SDS011;9867;48.094;11.478;2022-10-16T14:20:04;2.93;;;2.57;;
19456;SDS011;9867;48.094;11.478;2022-10-16T14:22:34;1.97;;;1.87;;
19456;SDS011;9867;48.094;11.478;2022-10-16T14:25:27;0.53;;;0.50;;
19456;SDS011;9867;48.094;11.478;2022-10-16T14:27:59;0.43;;;0.43;;
19456;SDS011;9867;48.094;11.478;2022-10-16T14:30:30;1.57;;;0.90;;
19456;SDS011;9867;48.094;11.478;2022-10-16T14:33:02;1.87;;;0.87;;
19456;SDS011;9867;48.094;11.478;2022-10-16T14:35:33;1.93;;;0.93;;
19456;SDS011;9867;48.094;11.478;2022-10-16T14:38:06;0.70;;;0.70;;
19456;SDS011;9867;48.094;11.478;2022-10-16T14:40:46;2.53;;;0.70;;
19456;SDS011;9867;48.094;11.478;2022-10-16T14:43:20;0.80;;;0.70;;
19456;SDS011;9867;48.094;11.478;2022-10-16T14:45:55;1.43;;;0.77;;
19456;SDS011;9867;48.094;11.478;2022-10-16T14:48:28;0.73;;;0.73;;
19456;SDS011;9867;48.094;11.478;2022-10-16T14:50:58;2.80;;;0.93;;
19456;SDS011;9867;48.094;11.478;2022-10-16T14:53:26;1.10;;;0.90;;
19456;SDS011;9867;48.094;11.478;2022-10-16T14:55:53;1.77;;;0.80;;
19456;SDS011;9867;48.094;11.478;2022-10-16T14:58:21;1.77;;;0.80;;
19456;SDS011;9867;48.094;11.478;2022-10-16T15:00:51;0.80;;;0.80;;
19456;SDS011;9867;48.094;11.478;2022-10-16T15:03:19;1.40;;;0.77;;
19456;SDS011;9867;48.094;11.478;2022-10-16T15:05:48;3.23;;;1.30;;
19456;SDS011;9867;48.094;11.478;2022-10-16T15:08:17;3.00;;;1.90;;
19456;SDS011;9867;48.094;11.478;2022-10-16T15:10:47;1.50;;;1.40;;
19456;SDS011;9867;48.094;11.478;2022-10-16T15:13:19;3.67;;;1.63;;
19456;SDS011;9867;48.094;11.478;2022-10-16T15:15:47;2.60;;;1.63;;
19456;SDS011;9867;48.094;11.478;2022-10-16T15:18:16;2.13;;;1.30;;
19456;SDS011;9867;48.094;11.478;2022-10-16T15:20:47;1.90;;;1.10;;
19456;SDS011;9867;48.094;11.478;2022-10-16T15:23:18;2.67;;;0.90;;
19456;SDS011;9867;48.094;11.478;2022-10-16T15:25:50;2.27;;;1.50;;